sensor_id;sensor_type;location;lat;lon;timestamp;P1;durP1;ratioP1;P2;durP2;ratioP2
42700;SDS011;28316;49.504;8.526;2023-05-10T00:00:07;3.15;;;1.40;;
42700;SDS011;28316;49.504;8.526;2023-05-10T00:02:34;4.32;;;1.35;;
42700;SDS011;28316;49.504;8.526;2023-05-10T00:05:00;2.33;;;1.10;;
42700;SDS011;28316;49.504;8.526;2023-05-10T00:07:26;1.88;;;1.40;;
42700;SDS011;28316;49.504;8.526;2023-05-10T00:09:52;1.98;;;0.95;;
42700;SDS011;28316;49.504;8.526;2023-05-10T00:12:18;0.98;;;0.60;;
42700;SDS011;28316;49.504;8.526;2023-05-10T00:14:43;0.80;;;0.55;;
42700;SDS011;28316;49.504;8.526;2023-05-10T00:17:10;1.98;;;1.13;;
42700;SDS011;28316;49.504;8.526;2023-05-10T00:19:35;2.10;;;0.90;;
42700;SDS011;28316;49.504;8.526;2023-05-10T00:22:01;1.00;;;0.60;;
42700;SDS011;28316;49.504;8.526;2023-05-10T00:24:27;1.10;;;0.80;;
42700;SDS011;28316;49.504;8.526;2023-05-10T00:26:52;2.05;;;0.80;;
42700;SDS011;28316;49.504;8.526;2023-05-10T00:29:18;0.85;;;0.68;;
42700;SDS011;28316;49.504;8.526;2023-05-10T00:31:44;1.77;;;0.90;;
42700;SDS011;28316;49.504;8.526;2023-05-10T00:34:10;2.75;;;0.82;;
42700;SDS011;28316;49.504;8.526;2023-05-10T00:36:36;1.25;;;0.80;;
42700;SDS011;28316;49.504;8.526;2023-05-10T00:39:01;1.20;;;0.98;;
42700;SDS011;28316;49.504;8.526;2023-05-10T00:41:28;1.05;;;0.57;;
42700;SDS011;28316;49.504;8.526;2023-05-10T00:43:57;3.25;;;1.08;;
42700;SDS011;28316;49.504;8.526;2023-05-10T00:46:23;1.77;;;0.80;;
42700;SDS011;28316;49.504;8.526;2023-05-10T00:48:50;1.55;;;0.80;;
42700;SDS011;28316;49.504;8.526;2023-05-10T00:51:17;0.85;;;0.80;;
42700;SDS011;28316;49.504;8.526;2023-05-10T00:53:43;1.63;;;1.13;;
42700;SDS011;28316;49.504;8.526;2023-05-10T00:56:11;3.65;;;1.27;;
42700;SDS011;28316;49.504;8.526;2023-05-10T00:58:38;1.05;;;0.60;;
42700;SDS011;28316;49.504;8.526;2023-05-10T01:01:07;1.60;;;0.75;;
42700;SDS011;28316;49.504;8.526;2023-05-10T01:03:34;2.95;;;0.98;;
42700;SDS011;28316;49.504;8.526;2023-05-10T01:06:01;3.33;;;1.25;;
42700;SDS011;28316;49.504;8.526;2023-05-10T01:15:15;1.40;;;0.70;;
42700;SDS011;28316;49.504;8.526;2023-05-10T01:17:42;2.47;;;0.95;;
42700;SDS011;28316;49.504;8.526;2023-05-10T01:20:11;2.47;;;1.30;;
42700;SDS011;28316;49.504;8.526;2023-05-10T01:26:14;2.10;;;0.98;;
42700;SDS011;28316;49.504;8.526;2023-05-10T01:32:14;1.20;;;0.75;;
42700;SDS011;28316;49.504;8.526;2023-05-10T01:35:00;1.60;;;0.75;;
42700;SDS011;28316;49.504;8.526;2023-05-10T01:37:41;1.23;;;0.75;;
42700;SDS011;28316;49.504;8.526;2023-05-10T01:40:17;0.75;;;0.50;;
42700;SDS011;28316;49.504;8.526;2023-05-10T01:42:53;1.73;;;0.93;;
42700;SDS011;28316;49.504;8.526;2023-05-10T01:48:18;1.42;;;0.80;;
42700;SDS011;28316;49.504;8.526;2023-05-10T01:50:45;0.65;;;0.57;;
42700;SDS011;28316;49.504;8.526;2023-05-10T01:53:13;1.67;;;0.70;;
42700;SDS011;28316;49.504;8.526;2023-05-10T01:55:46;1.63;;;0.98;;
42700;SDS011;28316;49.504;8.526;2023-05-10T01:58:19;0.70;;;0.38;;
42700;SDS011;28316;49.504;8.526;2023-05-10T02:00:56;1.05;;;0.57;;
42700;SDS011;28316;49.504;8.526;2023-05-10T02:03:26;1.17;;;0.80;;
42700;SDS011;28316;49.504;8.526;2023-05-10T02:05:53;2.22;;;0.70;;
42700;SDS011;28316;49.504;8.526;2023-05-10T02:08:21;2.03;;;0.88;;
42700;SDS011;28316;49.504;8.526;2023-05-10T02:10:49;1.73;;;0.90;;
42700;SDS011;28316;49.504;8.526;2023-05-10T02:13:17;0.70;;;0.57;;
42700;SDS011;28316;49.504;8.526;2023-05-10T02:15:45;1.55;;;0.80;;
42700;SDS011;28316;49.504;8.526;2023-05-10T02:18:13;0.55;;;0.45;;
42700;SDS011;28316;49.504;8.526;2023-05-10T02:20:41;0.93;;;0.70;;
42700;SDS011;28316;49.504;8.526;2023-05-10T02:23:10;3.03;;;0.63;;
42700;SDS011;28316;49.504;8.526;2023-05-10T02:25:37;1.45;;;0.82;;
42700;SDS011;28316;49.504;8.526;2023-05-10T02:28:04;0.77;;;0.63;;
42700;SDS011;28316;49.504;8.526;2023-05-10T02:30:32;1.27;;;0.93;;
42700;SDS011;28316;49.504;8.526;2023-05-10T02:32:59;2.03;;;0.63;;
42700;SDS011;28316;49.504;8.526;2023-05-10T02:35:28;0.80;;;0.52;;
42700;SDS011;28316;49.504;8.526;2023-05-10T02:37:54;0.93;;;0.50;;
42700;SDS011;28316;49.504;8.526;2023-05-10T02:40:22;0.82;;;0.55;;
42700;SDS011;28316;49.504;8.526;2023-05-10T02:42:50;4.53;;;1.13;;
42700;SDS011;28316;49.504;8.526;2023-05-10T02:45:20;1.40;;;0.60;;
42700;SDS011;28316;49.504;8.526;2023-05-10T02:47:51;1.02;;;0.70;;
42700;SDS011;28316;49.504;8.526;2023-05-10T02:50:17;1.80;;;0.82;;
42700;SDS011;28316;49.504;8.526;2023-05-10T02:52:46;4.05;;;1.15;;
42700;SDS011;28316;49.504;8.526;2023-05-10T02:55:19;1.50;;;0.88;;
42700;SDS011;28316;49.504;8.526;2023-05-10T02:57:58;5.07;;;1.05;;
42700;SDS011;28316;49.504;8.526;2023-05-10T03:00:26;1.15;;;0.85;;
42700;SDS011;28316;49.504;8.526;2023-05-10T03:02:52;2.38;;;0.70;;
42700;SDS011;28316;49.504;8.526;2023-05-10T03:05:18;2.00;;;0.90;;
42700;SDS011;28316;49.504;8.526;2023-05-10T03:07:45;1.33;;;0.65;;
42700;SDS011;28316;49.504;8.526;2023-05-10T03:10:12;2.15;;;0.85;;
42700;SDS011;28316;49.504;8.526;2023-05-10T03:18:23;1.48;;;0.93;;
42700;SDS011;28316;49.504;8.526;2023-05-10T03:21:02;1.13;;;0.70;;
42700;SDS011;28316;49.504;8.526;2023-05-10T03:23:40;2.22;;;1.10;;
42700;SDS011;28316;49.504;8.526;2023-05-10T03:26:11;2.78;;;0.70;;
42700;SDS011;28316;49.504;8.526;2023-05-10T03:28:45;4.93;;;1.15;;
42700;SDS011;28316;49.504;8.526;2023-05-10T03:31:13;9.38;;;1.30;;
42700;SDS011;28316;49.504;8.526;2023-05-10T03:33:49;2.90;;;1.00;;
42700;SDS011;28316;49.504;8.526;2023-05-10T03:36:16;1.83;;;1.20;;
42700;SDS011;28316;49.504;8.526;2023-05-10T03:38:43;3.20;;;1.38;;
42700;SDS011;28316;49.504;8.526;2023-05-10T03:41:09;3.00;;;1.45;;
42700;SDS011;28316;49.504;8.526;2023-05-10T03:43:35;2.88;;;1.40;;
42700;SDS011;28316;49.504;8.526;2023-05-10T03:46:02;3.60;;;1.63;;
42700;SDS011;28316;49.504;8.526;2023-05-10T03:48:28;2.03;;;1.30;;
42700;SDS011;28316;49.504;8.526;2023-05-10T03:50:55;2.33;;;1.38;;
42700;SDS011;28316;49.504;8.526;2023-05-10T03:53:20;2.40;;;1.33;;
42700;SDS011;28316;49.504;8.526;2023-05-10T03:55:48;2.92;;;1.30;;
42700;SDS011;28316;49.504;8.526;2023-05-10T03:58:14;2.33;;;1.33;;
42700;SDS011;28316;49.504;8.526;2023-05-10T04:00:40;1.90;;;1.30;;
42700;SDS011;28316;49.504;8.526;2023-05-10T04:03:10;4.60;;;1.92;;
42700;SDS011;28316;49.504;8.526;2023-05-10T04:05:37;2.22;;;1.10;;
42700;SDS011;28316;49.504;8.526;2023-05-10T04:08:03;7.07;;;1.63;;
42700;SDS011;28316;49.504;8.526;2023-05-10T04:10:29;2.05;;;1.27;;
42700;SDS011;28316;49.504;8.526;2023-05-10T04:12:55;3.08;;;1.50;;
42700;SDS011;28316;49.504;8.526;2023-05-10T04:15:21;1.50;;;0.95;;
42700;SDS011;28316;49.504;8.526;2023-05-10T04:17:47;2.20;;;1.27;;
42700;SDS011;28316;49.504;8.526;2023-05-10T04:20:13;4.25;;;1.77;;
42700;SDS011;28316;49.504;8.526;2023-05-10T04:22:39;4.38;;;1.38;;
42700;SDS011;28316;49.504;8.526;2023-05-10T04:25:05;3.20;;;1.63;;
42700;SDS011;28316;49.504;8.526;2023-05-10T04:27:32;5.75;;;1.13;;
42700;SDS011;28316;49.504;8.526;2023-05-10T04:29:58;1.95;;;1.10;;
42700;SDS011;28316;49.504;8.526;2023-05-10T04:32:24;2.38;;;1.35;;
42700;SDS011;28316;49.504;8.526;2023-05-10T04:34:49;1.88;;;1.40;;
42700;SDS011;28316;49.504;8.526;2023-05-10T04:37:18;5.20;;;2.58;;
42700;SDS011;28316;49.504;8.526;2023-05-10T04:39:46;5.18;;;2.33;;
42700;SDS011;28316;49.504;8.526;2023-05-10T04:42:12;4.28;;;2.08;;
42700;SDS011;28316;49.504;8.526;2023-05-10T04:44:39;1.05;;;0.80;;
42700;SDS011;28316;49.504;8.526;2023-05-10T04:47:05;2.30;;;1.13;;
42700;SDS011;28316;49.504;8.526;2023-05-10T04:49:31;1.45;;;1.00;;
42700;SDS011;28316;49.504;8.526;2023-05-10T04:51:57;7.00;;;1.33;;
42700;SDS011;28316;49.504;8.526;2023-05-10T04:54:23;2.67;;;0.93;;
42700;SDS011;28316;49.504;8.526;2023-05-10T04:56:49;2.15;;;1.40;;
42700;SDS011;28316;49.504;8.526;2023-05-10T04:59:14;1.50;;;0.98;;
42700;SDS011;28316;49.504;8.526;2023-05-10T05:01:40;3.03;;;1.58;;
42700;SDS011;28316;49.504;8.526;2023-05-10T05:04:06;4.38;;;2.30;;
42700;SDS011;28316;49.504;8.526;2023-05-10T05:06:32;3.47;;;2.15;;
42700;SDS011;28316;49.504;8.526;2023-05-10T05:08:57;2.38;;;1.25;;
42700;SDS011;28316;49.504;8.526;2023-05-10T05:11:23;3.13;;;1.70;;
42700;SDS011;28316;49.504;8.526;2023-05-10T05:13:50;4.22;;;2.28;;
42700;SDS011;28316;49.504;8.526;2023-05-10T05:16:16;3.78;;;1.77;;
42700;SDS011;28316;49.504;8.526;2023-05-10T05:18:42;4.03;;;1.38;;
42700;SDS011;28316;49.504;8.526;2023-05-10T05:21:17;2.75;;;1.70;;
42700;SDS011;28316;49.504;8.526;2023-05-10T05:23:44;2.95;;;1.65;;
42700;SDS011;28316;49.504;8.526;2023-05-10T05:26:11;8.90;;;2.10;;
42700;SDS011;28316;49.504;8.526;2023-05-10T05:28:37;2.90;;;1.70;;
42700;SDS011;28316;49.504;8.526;2023-05-10T05:31:04;2.30;;;1.58;;
42700;SDS011;28316;49.504;8.526;2023-05-10T05:33:30;1.98;;;1.30;;
42700;SDS011;28316;49.504;8.526;2023-05-10T05:35:56;3.20;;;1.67;;
42700;SDS011;28316;49.504;8.526;2023-05-10T05:38:25;3.28;;;2.05;;
42700;SDS011;28316;49.504;8.526;2023-05-10T05:40:51;3.80;;;2.10;;
42700;SDS011;28316;49.504;8.526;2023-05-10T05:43:16;2.58;;;1.45;;
42700;SDS011;28316;49.504;8.526;2023-05-10T05:45:42;3.08;;;1.45;;
42700;SDS011;28316;49.504;8.526;2023-05-10T05:48:08;2.88;;;1.52;;
42700;SDS011;28316;49.504;8.526;2023-05-10T05:50:33;4.55;;;2.53;;
42700;SDS011;28316;49.504;8.526;2023-05-10T05:52:59;2.00;;;1.30;;
42700;SDS011;28316;49.504;8.526;2023-05-10T05:55:32;5.35;;;1.50;;
42700;SDS011;28316;49.504;8.526;2023-05-10T05:58:10;2.33;;;1.50;;
42700;SDS011;28316;49.504;8.526;2023-05-10T06:00:44;3.80;;;1.48;;
42700;SDS011;28316;49.504;8.526;2023-05-10T06:03:10;3.92;;;1.88;;
42700;SDS011;28316;49.504;8.526;2023-05-10T06:05:43;3.30;;;2.13;;
42700;SDS011;28316;49.504;8.526;2023-05-10T06:08:28;16.17;;;4.07;;
42700;SDS011;28316;49.504;8.526;2023-05-10T06:11:01;24.63;;;5.18;;
42700;SDS011;28316;49.504;8.526;2023-05-10T06:13:39;3.10;;;2.05;;
42700;SDS011;28316;49.504;8.526;2023-05-10T06:16:08;3.53;;;1.90;;
42700;SDS011;28316;49.504;8.526;2023-05-10T06:19:06;3.20;;;2.10;;
42700;SDS011;28316;49.504;8.526;2023-05-10T06:21:42;2.42;;;1.70;;
42700;SDS011;28316;49.504;8.526;2023-05-10T06:26:59;2.85;;;1.90;;
42700;SDS011;28316;49.504;8.526;2023-05-10T06:29:25;8.20;;;2.37;;
42700;SDS011;28316;49.504;8.526;2023-05-10T06:31:56;3.30;;;1.80;;
42700;SDS011;28316;49.504;8.526;2023-05-10T06:34:22;4.07;;;2.17;;
42700;SDS011;28316;49.504;8.526;2023-05-10T06:37:13;3.95;;;1.67;;
42700;SDS011;28316;49.504;8.526;2023-05-10T06:42:46;5.97;;;2.17;;
42700;SDS011;28316;49.504;8.526;2023-05-10T06:53:03;4.43;;;2.38;;
42700;SDS011;28316;49.504;8.526;2023-05-10T06:55:28;4.65;;;2.42;;
42700;SDS011;28316;49.504;8.526;2023-05-10T06:57:54;4.75;;;2.03;;
42700;SDS011;28316;49.504;8.526;2023-05-10T07:00:20;4.90;;;2.33;;
42700;SDS011;28316;49.504;8.526;2023-05-10T07:02:46;2.45;;;1.85;;
42700;SDS011;28316;49.504;8.526;2023-05-10T07:05:12;3.15;;;2.03;;
42700;SDS011;28316;49.504;8.526;2023-05-10T07:07:39;6.07;;;2.88;;
42700;SDS011;28316;49.504;8.526;2023-05-10T07:10:05;5.50;;;1.52;;
42700;SDS011;28316;49.504;8.526;2023-05-10T07:12:33;3.47;;;1.33;;
42700;SDS011;28316;49.504;8.526;2023-05-10T07:14:58;6.18;;;1.35;;
42700;SDS011;28316;49.504;8.526;2023-05-10T07:17:24;4.15;;;1.95;;
42700;SDS011;28316;49.504;8.526;2023-05-10T07:19:50;4.50;;;1.25;;
42700;SDS011;28316;49.504;8.526;2023-05-10T07:22:16;3.00;;;1.48;;
42700;SDS011;28316;49.504;8.526;2023-05-10T07:24:42;1.52;;;1.10;;
42700;SDS011;28316;49.504;8.526;2023-05-10T07:27:09;1.33;;;0.80;;
42700;SDS011;28316;49.504;8.526;2023-05-10T07:29:35;5.45;;;1.10;;
42700;SDS011;28316;49.504;8.526;2023-05-10T07:32:02;3.03;;;1.50;;
42700;SDS011;28316;49.504;8.526;2023-05-10T07:34:28;1.42;;;0.95;;
42700;SDS011;28316;49.504;8.526;2023-05-10T07:36:55;1.23;;;0.82;;
42700;SDS011;28316;49.504;8.526;2023-05-10T07:39:23;2.03;;;1.15;;
42700;SDS011;28316;49.504;8.526;2023-05-10T07:41:49;2.70;;;1.38;;
42700;SDS011;28316;49.504;8.526;2023-05-10T07:44:15;1.73;;;1.02;;
42700;SDS011;28316;49.504;8.526;2023-05-10T07:46:43;1.13;;;0.93;;
42700;SDS011;28316;49.504;8.526;2023-05-10T07:49:09;3.28;;;1.05;;
42700;SDS011;28316;49.504;8.526;2023-05-10T07:51:35;4.22;;;0.80;;
42700;SDS011;28316;49.504;8.526;2023-05-10T07:54:01;4.35;;;1.10;;
42700;SDS011;28316;49.504;8.526;2023-05-10T07:56:28;1.35;;;0.90;;
42700;SDS011;28316;49.504;8.526;2023-05-10T07:58:56;1.63;;;0.90;;
42700;SDS011;28316;49.504;8.526;2023-05-10T08:01:23;1.02;;;0.90;;
42700;SDS011;28316;49.504;8.526;2023-05-10T08:03:49;2.65;;;1.05;;
42700;SDS011;28316;49.504;8.526;2023-05-10T08:06:19;1.52;;;0.70;;
42700;SDS011;28316;49.504;8.526;2023-05-10T08:08:46;2.28;;;0.73;;
42700;SDS011;28316;49.504;8.526;2023-05-10T08:11:16;1.70;;;0.95;;
42700;SDS011;28316;49.504;8.526;2023-05-10T08:13:42;0.82;;;0.60;;
42700;SDS011;28316;49.504;8.526;2023-05-10T08:16:09;0.75;;;0.60;;
42700;SDS011;28316;49.504;8.526;2023-05-10T08:18:34;1.10;;;0.80;;
42700;SDS011;28316;49.504;8.526;2023-05-10T08:21:00;1.92;;;0.95;;
42700;SDS011;28316;49.504;8.526;2023-05-10T08:23:26;0.80;;;0.57;;
42700;SDS011;28316;49.504;8.526;2023-05-10T08:25:51;0.90;;;0.63;;
42700;SDS011;28316;49.504;8.526;2023-05-10T08:28:17;1.40;;;0.75;;
42700;SDS011;28316;49.504;8.526;2023-05-10T08:30:43;0.93;;;0.55;;
42700;SDS011;28316;49.504;8.526;2023-05-10T08:33:09;1.23;;;0.80;;
42700;SDS011;28316;49.504;8.526;2023-05-10T08:35:34;2.67;;;0.73;;
42700;SDS011;28316;49.504;8.526;2023-05-10T08:38:00;0.98;;;0.38;;
42700;SDS011;28316;49.504;8.526;2023-05-10T08:40:26;1.23;;;0.90;;
42700;SDS011;28316;49.504;8.526;2023-05-10T08:42:57;1.63;;;0.90;;
42700;SDS011;28316;49.504;8.526;2023-05-10T08:45:32;1.13;;;0.60;;
42700;SDS011;28316;49.504;8.526;2023-05-10T08:48:02;2.97;;;0.88;;
42700;SDS011;28316;49.504;8.526;2023-05-10T08:50:31;0.50;;;0.30;;
42700;SDS011;28316;49.504;8.526;2023-05-10T08:53:06;0.80;;;0.52;;
42700;SDS011;28316;49.504;8.526;2023-05-10T08:55:37;1.48;;;0.60;;
42700;SDS011;28316;49.504;8.526;2023-05-10T08:58:07;1.05;;;0.50;;
42700;SDS011;28316;49.504;8.526;2023-05-10T09:00:33;0.50;;;0.40;;
42700;SDS011;28316;49.504;8.526;2023-05-10T09:03:00;0.68;;;0.40;;
42700;SDS011;28316;49.504;8.526;2023-05-10T09:05:28;2.55;;;0.90;;
42700;SDS011;28316;49.504;8.526;2023-05-10T09:07:54;0.77;;;0.35;;
42700;SDS011;28316;49.504;8.526;2023-05-10T09:10:20;0.85;;;0.50;;
42700;SDS011;28316;49.504;8.526;2023-05-10T09:12:48;1.35;;;0.60;;
42700;SDS011;28316;49.504;8.526;2023-05-10T09:15:17;0.32;;;0.28;;
42700;SDS011;28316;49.504;8.526;2023-05-10T09:17:44;2.10;;;0.43;;
42700;SDS011;28316;49.504;8.526;2023-05-10T09:20:12;0.77;;;0.30;;
42700;SDS011;28316;49.504;8.526;2023-05-10T09:22:38;7.50;;;0.88;;
42700;SDS011;28316;49.504;8.526;2023-05-10T09:25:08;1.75;;;0.73;;
42700;SDS011;28316;49.504;8.526;2023-05-10T09:27:39;1.65;;;0.85;;
42700;SDS011;28316;49.504;8.526;2023-05-10T09:30:10;1.40;;;0.70;;
42700;SDS011;28316;49.504;8.526;2023-05-10T09:32:42;0.60;;;0.50;;
42700;SDS011;28316;49.504;8.526;2023-05-10T09:35:11;0.85;;;0.70;;
42700;SDS011;28316;49.504;8.526;2023-05-10T09:37:42;1.58;;;0.60;;
42700;SDS011;28316;49.504;8.526;2023-05-10T09:40:11;0.77;;;0.47;;
42700;SDS011;28316;49.504;8.526;2023-05-10T09:45:26;0.95;;;0.52;;
42700;SDS011;28316;49.504;8.526;2023-05-10T09:47:55;0.70;;;0.43;;
42700;SDS011;28316;49.504;8.526;2023-05-10T09:50:22;0.68;;;0.40;;
42700;SDS011;28316;49.504;8.526;2023-05-10T09:55:42;0.45;;;0.40;;
42700;SDS011;28316;49.504;8.526;2023-05-10T09:58:09;1.70;;;0.73;;
42700;SDS011;28316;49.504;8.526;2023-05-10T10:00:40;1.40;;;0.70;;
42700;SDS011;28316;49.504;8.526;2023-05-10T10:03:14;7.63;;;0.40;;
42700;SDS011;28316;49.504;8.526;2023-05-10T10:05:42;1.05;;;0.80;;
42700;SDS011;28316;49.504;8.526;2023-05-10T10:08:11;0.65;;;0.50;;
42700;SDS011;28316;49.504;8.526;2023-05-10T10:10:38;0.77;;;0.50;;
42700;SDS011;28316;49.504;8.526;2023-05-10T10:13:10;1.23;;;0.75;;
42700;SDS011;28316;49.504;8.526;2023-05-10T10:15:35;0.80;;;0.57;;
42700;SDS011;28316;49.504;8.526;2023-05-10T10:18:02;1.17;;;0.80;;
42700;SDS011;28316;49.504;8.526;2023-05-10T10:20:29;2.55;;;0.95;;
42700;SDS011;28316;49.504;8.526;2023-05-10T10:22:55;1.60;;;1.02;;
42700;SDS011;28316;49.504;8.526;2023-05-10T10:25:21;1.52;;;0.93;;
42700;SDS011;28316;49.504;8.526;2023-05-10T10:33:24;1.42;;;0.88;;
42700;SDS011;28316;49.504;8.526;2023-05-10T10:35:58;0.85;;;0.70;;
42700;SDS011;28316;49.504;8.526;2023-05-10T10:38:25;1.02;;;0.60;;
42700;SDS011;28316;49.504;8.526;2023-05-10T10:41:34;1.05;;;0.52;;
42700;SDS011;28316;49.504;8.526;2023-05-10T10:47:01;0.85;;;0.70;;
42700;SDS011;28316;49.504;8.526;2023-05-10T10:57:32;0.82;;;0.60;;
42700;SDS011;28316;49.504;8.526;2023-05-10T11:00:21;1.13;;;0.80;;
42700;SDS011;28316;49.504;8.526;2023-05-10T11:02:55;1.95;;;0.55;;
42700;SDS011;28316;49.504;8.526;2023-05-10T11:08:45;4.03;;;0.60;;
42700;SDS011;28316;49.504;8.526;2023-05-10T11:13:29;4.28;;;0.82;;
42700;SDS011;28316;49.504;8.526;2023-05-10T11:15:57;1.65;;;0.55;;
42700;SDS011;28316;49.504;8.526;2023-05-10T11:18:35;3.60;;;0.47;;
42700;SDS011;28316;49.504;8.526;2023-05-10T11:21:03;0.60;;;0.57;;
42700;SDS011;28316;49.504;8.526;2023-05-10T11:23:31;0.85;;;0.30;;
42700;SDS011;28316;49.504;8.526;2023-05-10T11:26:12;0.22;;;0.20;;
42700;SDS011;28316;49.504;8.526;2023-05-10T11:28:45;1.75;;;0.57;;
42700;SDS011;28316;49.504;8.526;2023-05-10T11:31:16;2.03;;;0.40;;
42700;SDS011;28316;49.504;8.526;2023-05-10T11:33:44;0.40;;;0.30;;
42700;SDS011;28316;49.504;8.526;2023-05-10T11:36:15;1.58;;;0.30;;
42700;SDS011;28316;49.504;8.526;2023-05-10T11:38:45;1.52;;;0.40;;
42700;SDS011;28316;49.504;8.526;2023-05-10T11:41:12;1.00;;;0.30;;
42700;SDS011;28316;49.504;8.526;2023-05-10T11:43:38;1.25;;;0.55;;
42700;SDS011;28316;49.504;8.526;2023-05-10T11:46:06;2.40;;;0.57;;
42700;SDS011;28316;49.504;8.526;2023-05-10T11:48:38;0.77;;;0.45;;
42700;SDS011;28316;49.504;8.526;2023-05-10T11:51:06;2.17;;;0.50;;
42700;SDS011;28316;49.504;8.526;2023-05-10T11:53:33;3.25;;;0.55;;
42700;SDS011;28316;49.504;8.526;2023-05-10T11:56:02;1.90;;;0.38;;
42700;SDS011;28316;49.504;8.526;2023-05-10T11:58:38;0.65;;;0.30;;
42700;SDS011;28316;49.504;8.526;2023-05-10T12:01:06;6.13;;;0.90;;
42700;SDS011;28316;49.504;8.526;2023-05-10T12:03:34;0.30;;;0.20;;
42700;SDS011;28316;49.504;8.526;2023-05-10T12:06:01;0.40;;;0.40;;
42700;SDS011;28316;49.504;8.526;2023-05-10T12:08:28;1.88;;;0.40;;
42700;SDS011;28316;49.504;8.526;2023-05-10T12:11:08;3.45;;;0.60;;
42700;SDS011;28316;49.504;8.526;2023-05-10T12:13:40;8.88;;;1.00;;
42700;SDS011;28316;49.504;8.526;2023-05-10T12:16:18;0.52;;;0.32;;
42700;SDS011;28316;49.504;8.526;2023-05-10T12:18:49;1.05;;;0.43;;
42700;SDS011;28316;49.504;8.526;2023-05-10T12:21:16;0.70;;;0.60;;
42700;SDS011;28316;49.504;8.526;2023-05-10T12:23:44;0.28;;;0.28;;
42700;SDS011;28316;49.504;8.526;2023-05-10T12:26:12;1.00;;;0.32;;
42700;SDS011;28316;49.504;8.526;2023-05-10T12:28:38;0.75;;;0.38;;
42700;SDS011;28316;49.504;8.526;2023-05-10T12:31:07;0.88;;;0.40;;
42700;SDS011;28316;49.504;8.526;2023-05-10T12:33:36;2.25;;;0.55;;
42700;SDS011;28316;49.504;8.526;2023-05-10T12:36:10;0.88;;;0.43;;
42700;SDS011;28316;49.504;8.526;2023-05-10T12:38:39;0.38;;;0.32;;
42700;SDS011;28316;49.504;8.526;2023-05-10T12:41:07;0.73;;;0.30;;
42700;SDS011;28316;49.504;8.526;2023-05-10T12:43:38;0.22;;;0.20;;
42700;SDS011;28316;49.504;8.526;2023-05-10T12:46:05;0.20;;;0.20;;
42700;SDS011;28316;49.504;8.526;2023-05-10T12:48:37;4.35;;;0.50;;
42700;SDS011;28316;49.504;8.526;2023-05-10T12:51:05;0.90;;;0.50;;
42700;SDS011;28316;49.504;8.526;2023-05-10T12:53:34;2.00;;;0.98;;
42700;SDS011;28316;49.504;8.526;2023-05-10T12:56:00;0.30;;;0.30;;
42700;SDS011;28316;49.504;8.526;2023-05-10T12:58:26;1.60;;;0.38;;
42700;SDS011;28316;49.504;8.526;2023-05-10T13:00:52;1.30;;;0.57;;
42700;SDS011;28316;49.504;8.526;2023-05-10T13:03:18;1.92;;;0.30;;
42700;SDS011;28316;49.504;8.526;2023-05-10T13:05:44;0.28;;;0.28;;
42700;SDS011;28316;49.504;8.526;2023-05-10T13:08:10;5.00;;;0.50;;
42700;SDS011;28316;49.504;8.526;2023-05-10T13:10:36;1.58;;;0.75;;
42700;SDS011;28316;49.504;8.526;2023-05-10T13:13:02;0.88;;;0.60;;
42700;SDS011;28316;49.504;8.526;2023-05-10T13:15:27;1.13;;;0.50;;
42700;SDS011;28316;49.504;8.526;2023-05-10T13:17:53;4.80;;;0.50;;
42700;SDS011;28316;49.504;8.526;2023-05-10T13:20:19;0.75;;;0.32;;
42700;SDS011;28316;49.504;8.526;2023-05-10T13:22:45;0.50;;;0.40;;
42700;SDS011;28316;49.504;8.526;2023-05-10T13:25:11;0.80;;;0.55;;
42700;SDS011;28316;49.504;8.526;2023-05-10T13:27:41;1.08;;;0.50;;
42700;SDS011;28316;49.504;8.526;2023-05-10T13:30:07;1.50;;;0.60;;
42700;SDS011;28316;49.504;8.526;2023-05-10T13:32:34;0.60;;;0.50;;
42700;SDS011;28316;49.504;8.526;2023-05-10T13:35:00;0.95;;;0.40;;
42700;SDS011;28316;49.504;8.526;2023-05-10T13:37:28;0.60;;;0.30;;
42700;SDS011;28316;49.504;8.526;2023-05-10T13:39:55;0.40;;;0.22;;
42700;SDS011;28316;49.504;8.526;2023-05-10T13:42:24;0.63;;;0.20;;
42700;SDS011;28316;49.504;8.526;2023-05-10T13:44:50;1.08;;;0.45;;
42700;SDS011;28316;49.504;8.526;2023-05-10T13:47:16;0.20;;;0.20;;
42700;SDS011;28316;49.504;8.526;2023-05-10T13:49:42;0.50;;;0.30;;
42700;SDS011;28316;49.504;8.526;2023-05-10T13:52:07;0.32;;;0.30;;
42700;SDS011;28316;49.504;8.526;2023-05-10T13:54:35;0.47;;;0.20;;
42700;SDS011;28316;49.504;8.526;2023-05-10T13:57:03;1.15;;;0.55;;
42700;SDS011;28316;49.504;8.526;2023-05-10T13:59:29;2.60;;;0.40;;
42700;SDS011;28316;49.504;8.526;2023-05-10T14:01:56;2.95;;;0.30;;
42700;SDS011;28316;49.504;8.526;2023-05-10T14:04:23;0.32;;;0.20;;
42700;SDS011;28316;49.504;8.526;2023-05-10T14:06:49;0.17;;;0.13;;
42700;SDS011;28316;49.504;8.526;2023-05-10T14:09:15;3.78;;;0.50;;
42700;SDS011;28316;49.504;8.526;2023-05-10T14:11:41;0.43;;;0.30;;
42700;SDS011;28316;49.504;8.526;2023-05-10T14:14:11;0.50;;;0.28;;
42700;SDS011;28316;49.504;8.526;2023-05-10T14:16:38;1.80;;;0.40;;
42700;SDS011;28316;49.504;8.526;2023-05-10T14:19:08;0.52;;;0.28;;
42700;SDS011;28316;49.504;8.526;2023-05-10T14:21:35;0.32;;;0.20;;
42700;SDS011;28316;49.504;8.526;2023-05-10T14:24:00;6.30;;;0.40;;
42700;SDS011;28316;49.504;8.526;2023-05-10T14:26:26;1.65;;;0.80;;
42700;SDS011;28316;49.504;8.526;2023-05-10T14:28:52;0.38;;;0.22;;
42700;SDS011;28316;49.504;8.526;2023-05-10T14:31:18;1.63;;;0.20;;
42700;SDS011;28316;49.504;8.526;2023-05-10T14:33:48;0.17;;;0.13;;
42700;SDS011;28316;49.504;8.526;2023-05-10T14:36:14;0.82;;;0.20;;
42700;SDS011;28316;49.504;8.526;2023-05-10T14:38:40;1.50;;;0.30;;
42700;SDS011;28316;49.504;8.526;2023-05-10T14:41:06;2.58;;;0.20;;
42700;SDS011;28316;49.504;8.526;2023-05-10T14:43:32;3.55;;;0.90;;
42700;SDS011;28316;49.504;8.526;2023-05-10T14:45:58;0.15;;;0.15;;
42700;SDS011;28316;49.504;8.526;2023-05-10T14:48:23;12.52;;;0.30;;
42700;SDS011;28316;49.504;8.526;2023-05-10T14:50:49;0.20;;;0.20;;
42700;SDS011;28316;49.504;8.526;2023-05-10T14:53:17;0.10;;;0.10;;
42700;SDS011;28316;49.504;8.526;2023-05-10T14:55:43;0.20;;;0.17;;
42700;SDS011;28316;49.504;8.526;2023-05-10T14:58:09;0.10;;;0.10;;
42700;SDS011;28316;49.504;8.526;2023-05-10T15:00:35;0.38;;;0.20;;
42700;SDS011;28316;49.504;8.526;2023-05-10T15:03:00;0.15;;;0.13;;
42700;SDS011;28316;49.504;8.526;2023-05-10T15:05:26;2.50;;;0.20;;
42700;SDS011;28316;49.504;8.526;2023-05-10T15:07:52;0.75;;;0.17;;
42700;SDS011;28316;49.504;8.526;2023-05-10T15:10:18;3.40;;;0.55;;
42700;SDS011;28316;49.504;8.526;2023-05-10T15:12:44;1.45;;;0.20;;
42700;SDS011;28316;49.504;8.526;2023-05-10T15:15:10;0.10;;;0.10;;
42700;SDS011;28316;49.504;8.526;2023-05-10T15:17:35;0.17;;;0.17;;
42700;SDS011;28316;49.504;8.526;2023-05-10T15:20:01;2.38;;;0.40;;
42700;SDS011;28316;49.504;8.526;2023-05-10T15:22:28;0.65;;;0.60;;
42700;SDS011;28316;49.504;8.526;2023-05-10T15:24:56;0.52;;;0.30;;
42700;SDS011;28316;49.504;8.526;2023-05-10T15:27:24;7.03;;;0.30;;
42700;SDS011;28316;49.504;8.526;2023-05-10T15:29:50;0.20;;;0.20;;
42700;SDS011;28316;49.504;8.526;2023-05-10T15:32:17;8.95;;;0.30;;
42700;SDS011;28316;49.504;8.526;2023-05-10T15:34:42;0.55;;;0.20;;
42700;SDS011;28316;49.504;8.526;2023-05-10T15:37:08;0.47;;;0.20;;
42700;SDS011;28316;49.504;8.526;2023-05-10T15:39:34;0.35;;;0.20;;
42700;SDS011;28316;49.504;8.526;2023-05-10T15:42:00;0.90;;;0.40;;
42700;SDS011;28316;49.504;8.526;2023-05-10T15:44:26;0.00;;;0.00;;
42700;SDS011;28316;49.504;8.526;2023-05-10T15:46:52;3.50;;;0.35;;
42700;SDS011;28316;49.504;8.526;2023-05-10T15:49:17;0.43;;;0.20;;
42700;SDS011;28316;49.504;8.526;2023-05-10T15:51:43;0.52;;;0.20;;
42700;SDS011;28316;49.504;8.526;2023-05-10T15:54:09;0.20;;;0.20;;
42700;SDS011;28316;49.504;8.526;2023-05-10T15:56:35;1.05;;;0.30;;